Abbotsford, British Columbia

4:24 PM PDT on October 22, 2014 (GMT -0700)
Abbotsford | Change Station
CLOSE
Current Station
Airport
Location: Abbotsford,
Elevation: 194 ft
Nearby Weather Stations

Elev 194 ft 49.03 °N, 122.38 °W | Updated 24 minutes ago

Overcast
Overcast
55 °F
Feels Like 55 °F
N
6
Wind Variable Wind from NNE

Today
High -- | Low -- °F
--% Chance of Precip.
Yesterday
High -- | Low -- °F
Precip. -- in
7:41 AM 6:05 PM
Waning Crescent, 1% visible
Pressure 29.62 in
Visibility 20.0 miles
Clouds Few 500 ft
Overcast 3000 ft
Dew Point 54 °F
Humidity 94%
Rainfall 0.00 in
Snow Depth Not available.
UV 0 out of 12
Pollen Not available.
Air Quality Not available.
Flu Activity Not available.
METAR CYXX 222300Z 02005KT 20SM FEW005 OVC030 13/12 A2962 RMK SF1SC7 SLP031 DENSITY ALT 300FT

More Conditions Fewer Conditions

Pressure 29.62 in
Visibility 20.0 miles
Clouds Few 500 ft
Overcast 3000 ft
Dew Point 54 °F
Humidity 94%
Rainfall 0.00 in
Snow Depth Not available.
UV 0 out of 12
Pollen Not available.
Air Quality Not available.
Flu Activity Not available.
METAR CYXX 222300Z 02005KT 20SM FEW005 OVC030 13/12 A2962 RMK SF1SC7 SLP031 DENSITY ALT 300FT

More Conditions Fewer Conditions

10-Day Weather Forecast

Almanac

Astronomy

Oct. 22, 2014 Rise Set
Actual Time 7:41 AM PDT 6:05 PM PDT
Civil Twilight 7:08 AM PDT 6:38 PM PDT
Nautical Twilight 6:31 AM PDT 7:15 PM PDT
Astronomical Twilight 5:55 AM PDT 7:51 PM PDT
Moon 6:21 AM PDT 5:39 PM PDT
Length of Visible Light 11h 29m
Length of Day
10h 24m
Tomorrow will be 3m 26s shorter.
Waning Crescent, 1% of the Moon is Illuminated
Today
Waning Crescent
Oct 23
New
Oct 30
First Quarter
Nov 6
Full
Nov 14
Last Quarter

Today's Extremes

Country Highs Country Lows

Community

WunderPhotos

Upload Photos

1,764,078 photos uploaded!

WunderBlogs® & News

Nearby

Snow Depth

Not available.

Earthquake Activity

City Distance Mag. Time & Date
No recent earthquake activity has been reported nearby.
Minimum magnitude displayed is 2.5.

Coastal Water Temperatures

Place Temperature
No Stations Reporting

Nearby Weather Stations